Aérodrome :
LOGIN :

S'inscrire | Disclaimer

   EN    FR    IT 

 










Légende :    VFR   VFR Marginal   IFR   IFR Intensif   IFR Très Intensif
Visi : 
Plafond : 
>= 8 km
>= 3000ft
5 à 8 km
1000 à 3000 ft
1500m à 5 km
500 à 1000 ft
800 à 1500m
200 à 500 ft
< 800m
< 200 ft
Symboles :   Orages  Brouillard  Fortes neiges  Fortes précipitations  Vent > 20 kt
SIGMETs :   Divers  Orages  Givrage  Turbulence  Onde Orograph.  Cendres Volcan.






- Altitude de l'aérodrome : 1363 ft


ETIC - Grafenwohr Army Air Field

DERNIER METAR :
  • 062156Z AUTO 00000KT 9999 CLR 05/02 A3028 RMK AO2 SLP260 T00510016 $

METARs EXPIRÉS :
  • 062056Z AUTO 00000KT 9999 CLR 07/02 A3027 RMK AO2 SLP257 T00720015 52016 $
  • 061956Z AUTO 00000KT 9999 CLR 09/02 A3026 RMK AO2 SLP253 T00890018 $

TAF AMD TAF ETIC
Valide du 06 à 20h jusqu'au 07 à 12h UTC


062004Z 0620/0712 VRB06KT 9999 SKC QNH3018INS
BECMG 0705/0706 VRB03KT 8000 BR SKC QNH3025INS TX18/0712Z TNM01/0704Z



MET'MAP, la Météo Aéronautique d'un coup d'oeil ! - Copyright ORBIFLY Décembre 2007 - Disclaimer

ORBIFLY MET'MAP TEAM :

Programmation & Développement : Alexandra Zaïnal
Sur une idée originale de : Baudouin d'Aumeries
Assistance à la programmation : Marc-Olivier Méhu
Soutien technique & logistique : Manuel Goepfert

Contact : metmap@orbifly.com




SOURCES & CREDITS :

   NOAA